Circle Line Brooklyn — WDE8160 — position and weather

sailwx.info

Track history (hours):
 
Tides and Currents Weather Stations Pressure Air Temp Water Temp Dewpoint Dewpoint Depression Visibility Wind Speed Wind Dir Waves Ship Positions

Circle Line Brooklyn

Owner: Circle Line Sight Seeing Yachts Inc., New York, NY. More information available from US FCC via Universal Licensing System and Coast Guard Vessel Documentation Center.

Last reported at 2016-Dec-02 19:33 UTC. Time now 2016-Dec-03 13:45 UTC.
Position N 40°46' W 074°00'.

MMSI: 367402250.

Date/timePositionNaut miles runAvg speedWind from/ knotsBaromVisibWave heightAir tempDewpointWater temp
2016-Dec-02 19:33N 40°46' W 074°00'3 1.7
2016-Dec-02 17:34N 40°43' W 073°58'3 3.4
2016-Dec-02 16:33N 40°46' W 074°00'5 4.9
2016-Dec-02 15:33N 40°41' W 074°03'5 4.7
2016-Dec-02 14:31N 40°46' W 074°00'2 0.2
2016-Dec-02 01:33N 40°44' W 074°01'3 2.5
2016-Dec-02 00:33N 40°42' W 073°59'3 3.5
2016-Dec-01 23:33N 40°46' W 074°00'0 0.0
2016-Dec-01 22:33N 40°46' W 074°00'4 3.8
2016-Dec-01 21:33N 40°42' W 074°00'4 3.8
2016-Dec-01 20:33N 40°46' W 074°00'0 0.0
2016-Dec-01 19:32N 40°46' W 074°00'2 0.1
2016-Dec-01 01:33N 40°44' W 074°01'3 3.0
2016-Dec-01 00:33N 40°41' W 074°02'5 4.5
2016-Nov-30 23:32N 40°46' W 074°00'0 0.0
2016-Nov-30 22:32N 40°46' W 074°00'3 3.6
2016-Nov-30 21:33N 40°42' W 073°60'3 3.5
2016-Nov-30 20:32N 40°46' W 074°00'0 0.0
2016-Nov-29 19:22N 40°46' W 074°00'2 1.9
2016-Nov-29 18:06N 40°46' W 073°57'610.2
2016-Nov-29 17:33N 40°41' W 074°02'4 4.3
2016-Nov-29 16:31N 40°46' W 074°00'5 5.0
2016-Nov-29 15:33N 40°41' W 074°02'5 4.6
2016-Nov-29 14:31N 40°46' W 074°00'2 0.2
2016-Nov-29 01:34N 40°44' W 074°01'2 2.1
2016-Nov-29 00:34N 40°42' W 073°59'3 3.4
2016-Nov-28 23:32N 40°46' W 074°00'0 0.0
2016-Nov-28 22:32N 40°46' W 074°00'3 3.5
2016-Nov-28 21:33N 40°42' W 073°60'3 3.4
2016-Nov-28 20:33N 40°46' W 074°00'0 0.0
2016-Nov-28 19:32N 40°46' W 074°00'0 0.0
2016-Nov-28 18:32N 40°46' W 074°00'0 0.0
2016-Nov-28 17:32N 40°46' W 074°00'0 0.0
2016-Nov-28 16:29N 40°46' W 074°00'0 0.0
2016-Nov-28 15:32N 40°46' W 074°00'0 0.0
2016-Nov-28 14:32N 40°46' W 074°00'0 0.0
2016-Nov-27 20:08N 40°46' W 074°00'0 0.0
2016-Nov-27 19:32N 40°46' W 074°00'3 1.7
2016-Nov-27 17:33N 40°42' W 073°59'3 3.4
2016-Nov-27 16:33N 40°46' W 074°00'5 5.1
2016-Nov-27 15:34N 40°41' W 074°03'5 4.9
2016-Nov-27 14:32N 40°46' W 074°00'0 0.0
2016-Nov-27 02:26N 40°46' W 074°00'2 2.5
2016-Nov-27 01:33N 40°44' W 074°01'2 2.2
2016-Nov-27 00:33N 40°42' W 073°59'3 3.4
2016-Nov-26 23:32N 40°46' W 074°00'0 0.0
2016-Nov-26 22:32N 40°46' W 074°00'2 1.7
2016-Nov-26 21:33N 40°44' W 074°01'2 1.9
2016-Nov-26 20:33N 40°42' W 074°02'4 3.6
2016-Nov-26 19:33N 40°46' W 074°00'3 1.7
2016-Nov-26 17:33N 40°43' W 073°58'3 3.3
2016-Nov-26 16:33N 40°46' W 074°00'0 0.0
2016-Nov-25 22:24N 40°46' W 074°00'4 4.4
2016-Nov-25 21:33N 40°42' W 074°00'4 3.7
2016-Nov-25 20:33N 40°46' W 074°00'0 0.0
2016-Nov-25 19:32N 40°46' W 074°00'3 1.4
2016-Nov-25 17:33N 40°43' W 073°58'3 2.7
2016-Nov-25 16:31N 40°46' W 074°00'5 5.0
2016-Nov-25 15:33N 40°41' W 074°02'5 4.7
2016-Nov-25 14:31N 40°46' W 074°00'0 0.0
2016-Nov-24 19:24N 40°46' W 074°00'5 2.6
2016-Nov-24 17:34N 40°41' W 074°02'5 4.5
2016-Nov-24 16:31N 40°46' W 074°00'5 5.1
2016-Nov-24 15:33N 40°41' W 074°03'5 4.8
2016-Nov-24 14:32N 40°46' W 074°00'1 0.1
2016-Nov-24 01:33N 40°45' W 074°01'3 3.3
2016-Nov-24 00:33N 40°42' W 074°02'4 4.3
2016-Nov-23 23:33N 40°46' W 074°00'0 0.0
2016-Nov-23 22:33N 40°46' W 074°00'0 0.0
2016-Nov-23 21:33N 40°46' W 074°00'5 4.9
2016-Nov-23 20:33N 40°41' W 074°02'5 4.9
2016-Nov-23 19:33N 40°46' W 074°00'2 1.0
2016-Nov-23 17:33N 40°45' W 073°58'2 1.9
2016-Nov-23 16:33N 40°46' W 074°00'  
Track history (hours):
 
Tides and Currents Weather Stations Pressure Air Temp Water Temp Dewpoint Dewpoint Depression Visibility Wind Speed Wind Dir Waves Ship Positions

Circle Line Brooklyn

Owner: Circle Line Sight Seeing Yachts Inc., New York, NY. More information available from US FCC via Universal Licensing System and Coast Guard Vessel Documentation Center.

Last reported at 2016-Dec-02 19:33 UTC. Time now 2016-Dec-03 13:45 UTC.
Position N 40°46' W 074°00'.

MMSI: 367402250.

Date/timePositionNaut miles runAvg speedWind from/ knotsBaromVisibWave heightAir tempDewpointWater temp
2016-Dec-02 19:33N 40°46' W 074°00'3 1.7
2016-Dec-02 17:34N 40°43' W 073°58'3 3.4
2016-Dec-02 16:33N 40°46' W 074°00'5 4.9
2016-Dec-02 15:33N 40°41' W 074°03'5 4.7
2016-Dec-02 14:31N 40°46' W 074°00'2 0.2
2016-Dec-02 01:33N 40°44' W 074°01'3 2.5
2016-Dec-02 00:33N 40°42' W 073°59'3 3.5
2016-Dec-01 23:33N 40°46' W 074°00'0 0.0
2016-Dec-01 22:33N 40°46' W 074°00'4 3.8
2016-Dec-01 21:33N 40°42' W 074°00'4 3.8
2016-Dec-01 20:33N 40°46' W 074°00'0 0.0
2016-Dec-01 19:32N 40°46' W 074°00'2 0.1
2016-Dec-01 01:33N 40°44' W 074°01'3 3.0
2016-Dec-01 00:33N 40°41' W 074°02'5 4.5
2016-Nov-30 23:32N 40°46' W 074°00'0 0.0
2016-Nov-30 22:32N 40°46' W 074°00'3 3.6
2016-Nov-30 21:33N 40°42' W 073°60'3 3.5
2016-Nov-30 20:32N 40°46' W 074°00'0 0.0
2016-Nov-29 19:22N 40°46' W 074°00'2 1.9
2016-Nov-29 18:06N 40°46' W 073°57'610.2
2016-Nov-29 17:33N 40°41' W 074°02'4 4.3
2016-Nov-29 16:31N 40°46' W 074°00'5 5.0
2016-Nov-29 15:33N 40°41' W 074°02'5 4.6
2016-Nov-29 14:31N 40°46' W 074°00'2 0.2
2016-Nov-29 01:34N 40°44' W 074°01'2 2.1
2016-Nov-29 00:34N 40°42' W 073°59'3 3.4
2016-Nov-28 23:32N 40°46' W 074°00'0 0.0
2016-Nov-28 22:32N 40°46' W 074°00'3 3.5
2016-Nov-28 21:33N 40°42' W 073°60'3 3.4
2016-Nov-28 20:33N 40°46' W 074°00'0 0.0
2016-Nov-28 19:32N 40°46' W 074°00'0 0.0
2016-Nov-28 18:32N 40°46' W 074°00'0 0.0
2016-Nov-28 17:32N 40°46' W 074°00'0 0.0
2016-Nov-28 16:29N 40°46' W 074°00'0 0.0
2016-Nov-28 15:32N 40°46' W 074°00'0 0.0
2016-Nov-28 14:32N 40°46' W 074°00'0 0.0
2016-Nov-27 20:08N 40°46' W 074°00'0 0.0
2016-Nov-27 19:32N 40°46' W 074°00'3 1.7
2016-Nov-27 17:33N 40°42' W 073°59'3 3.4
2016-Nov-27 16:33N 40°46' W 074°00'5 5.1
2016-Nov-27 15:34N 40°41' W 074°03'5 4.9
2016-Nov-27 14:32N 40°46' W 074°00'0 0.0
2016-Nov-27 02:26N 40°46' W 074°00'2 2.5
2016-Nov-27 01:33N 40°44' W 074°01'2 2.2
2016-Nov-27 00:33N 40°42' W 073°59'3 3.4
2016-Nov-26 23:32N 40°46' W 074°00'0 0.0
2016-Nov-26 22:32N 40°46' W 074°00'2 1.7
2016-Nov-26 21:33N 40°44' W 074°01'2 1.9
2016-Nov-26 20:33N 40°42' W 074°02'4 3.6
2016-Nov-26 19:33N 40°46' W 074°00'3 1.7
2016-Nov-26 17:33N 40°43' W 073°58'3 3.3
2016-Nov-26 16:33N 40°46' W 074°00'0 0.0
2016-Nov-25 22:24N 40°46' W 074°00'4 4.4
2016-Nov-25 21:33N 40°42' W 074°00'4 3.7
2016-Nov-25 20:33N 40°46' W 074°00'0 0.0
2016-Nov-25 19:32N 40°46' W 074°00'3 1.4
2016-Nov-25 17:33N 40°43' W 073°58'3 2.7
2016-Nov-25 16:31N 40°46' W 074°00'5 5.0
2016-Nov-25 15:33N 40°41' W 074°02'5 4.7
2016-Nov-25 14:31N 40°46' W 074°00'0 0.0
2016-Nov-24 19:24N 40°46' W 074°00'5 2.6
2016-Nov-24 17:34N 40°41' W 074°02'5 4.5
2016-Nov-24 16:31N 40°46' W 074°00'5 5.1
2016-Nov-24 15:33N 40°41' W 074°03'5 4.8
2016-Nov-24 14:32N 40°46' W 074°00'1 0.1
2016-Nov-24 01:33N 40°45' W 074°01'3 3.3
2016-Nov-24 00:33N 40°42' W 074°02'4 4.3
2016-Nov-23 23:33N 40°46' W 074°00'0 0.0
2016-Nov-23 22:33N 40°46' W 074°00'0 0.0
2016-Nov-23 21:33N 40°46' W 074°00'5 4.9
2016-Nov-23 20:33N 40°41' W 074°02'5 4.9
2016-Nov-23 19:33N 40°46' W 074°00'2 1.0
2016-Nov-23 17:33N 40°45' W 073°58'2 1.9
2016-Nov-23 16:33N 40°46' W 074°00'  

Dump ship's entire track history